Algerie B736 at Oran on Nov 16th 2014, hard landing

Last Update: November 19, 2014 / 22:51:56 GMT/Zulu time

Bookmark this article
Incident Facts

Date of incident
Nov 16, 2014

Classification
Incident

Flight number
AH-2019

Destination
Oran, Algeria

Aircraft Registration
7T-VJU

Aircraft Type
Boeing 737-600

ICAO Type Designator
B736

Airport ICAO Code
DAOO

An Air Algerie Boeing 737-600, registration 7T-VJU performing flight AH-2019 from Barcelona,SP (Spain) to Oran (Algeria), landed in Oran at about 12:10L (11:10Z) but touched down hard causing several passenger units to separate and drop down onto passengers. The aircraft rolled out without further incident and taxied to the terminal, where passengers disembarked.

The aircraft was unable to continue its schedule and was ferried to Algiers as flight AH-7001 about 12 hours after landing for a thorough hard landing inspection.

The occurrence aircraft resumed service on Nov 18th about 48 hours after the hard landing.

Metars:
DAOO 161300Z 23012KT 9999 FEW023 BKN233 20/11 Q1017
DAOO 161230Z 23013KT 9999 FEW023 BKN233 19/10 Q1017
DAOO 161200Z 23009KT 9999 FEW023 BKN233 19/10 Q1017
DAOO 161130Z 24009KT 9999 FEW023 BKN233 19/10 Q1017
DAOO 161100Z 23011KT 9999 FEW023 BKN233 19/10 Q1018
DAOO 161030Z 23009KT 9999 FEW023 BKN233 18/10 Q1018
DAOO 161000Z 24009KT 9999 FEW023 BKN233 18/10 Q1018
DAOO 160930Z 24008KT 9999 FEW023 SCT100 BKN233 17/11 Q1018
DAOO 160900Z 24006KT 9999 FEW023 SCT100 BKN233 15/11 Q1018
DAOO 160830Z 24004KT 9999 FEW023 SCT100 BKN233 14/11 Q1018
DAOO 160800Z 28002KT 9999 FEW023 SCT100 BKN233 13/11 Q1018
DAOO 160730Z 23005KT 9999 FEW026 BKN100 13/10 Q1018
DAOO 160700Z 15004KT 9999 FEW026 BKN100 12/10 Q1017
DAOO 160630Z 23005KT 9999 SCT026 BKN233 12/10 Q1017
DAOO 160600Z 24008KT 9999 BKN026 SCT233 11/10 Q1017
Incident Facts

Date of incident
Nov 16, 2014

Classification
Incident

Flight number
AH-2019

Destination
Oran, Algeria

Aircraft Registration
7T-VJU

Aircraft Type
Boeing 737-600

ICAO Type Designator
B736

Airport ICAO Code
DAOO

This article is published under license from Avherald.com. © of text by Avherald.com.
Article source

You can read 4 more free articles without a subscription.

Subscribe now and continue reading without any limits!

Are you a subscriber?
Login
Subscribe

Read unlimited articles and receive our daily update briefing. Gain better insights into what is happening in commercial aviation safety.

Free newsletter

Want to know more and stay ahead? Get our free weekly newsletter and join 4931 existing subscribers.

By subscribing, you accept our terms and conditions and confirm that you've read our privacy policy.

Send tip

Support AeroInside by sending a small tip amount.

Related articles

Newest articles

Subscribe today

Are you researching aviation incidents? Get access to AeroInside Insights, unlimited read access and receive the daily newsletter.

Pick your plan and subscribe

Partner

Blockaviation logo

A new way to document and demonstrate airworthiness compliance and aircraft value. Find out more.

Virtual Speech logo

ELITE Simulation Solutions is a leading global provider of Flight Simulation Training Devices, IFR training software as well as flight controls and related services. Find out more.

Get updates

Never miss an article from AeroInside. Subscribe to our free weekly newsletter and join 4931 existing subscribers.

By subscribing, you accept our terms and conditions and that you've read our privacy policy.

AeroInside Blog
Popular aircraft
Airbus A320
Boeing 737-800
Boeing 737-800 MAX
Popular airlines
American Airlines
United
Delta
Air Canada
Lufthansa
British Airways